sensor_id;sensor_type;location;lat;lon;timestamp;pressure;altitude;pressure_sealevel;temperature;humidity
56630;BME280;42502;40.732;-74.254;2023-02-18T00:01:45;99994.47;;;20.02;38.66
56630;BME280;42502;40.732;-74.254;2023-02-18T00:03:46;99994.47;;;20.02;38.71
56630;BME280;42502;40.732;-74.254;2023-02-18T00:05:47;99989.91;;;19.94;38.72
56630;BME280;42502;40.732;-74.254;2023-02-18T00:07:48;100010.88;;;20.00;38.98
56630;BME280;42502;40.732;-74.254;2023-02-18T00:09:49;100018.44;;;19.99;38.55
56630;BME280;42502;40.732;-74.254;2023-02-18T00:11:50;100021.19;;;19.96;38.54
56630;BME280;42502;40.732;-74.254;2023-02-18T00:13:55;100025.25;;;19.98;38.63
56630;BME280;42502;40.732;-74.254;2023-02-18T00:16:03;100017.22;;;19.97;38.82
56630;BME280;42502;40.732;-74.254;2023-02-18T00:18:05;100018.00;;;19.97;38.28
56630;BME280;42502;40.732;-74.254;2023-02-18T00:20:07;99994.25;;;19.91;38.56
56630;BME280;42502;40.732;-74.254;2023-02-18T00:22:08;99991.44;;;19.91;38.25
56630;BME280;42502;40.732;-74.254;2023-02-18T00:24:12;99999.06;;;19.91;38.43
56630;BME280;42502;40.732;-74.254;2023-02-18T00:26:16;100011.00;;;19.87;38.26
56630;BME280;42502;40.732;-74.254;2023-02-18T00:28:17;100019.91;;;19.93;38.26
56630;BME280;42502;40.732;-74.254;2023-02-18T00:30:18;100038.66;;;19.89;38.45
56630;BME280;42502;40.732;-74.254;2023-02-18T00:32:19;100050.69;;;19.90;38.24
56630;BME280;42502;40.732;-74.254;2023-02-18T00:34:19;100069.13;;;19.91;38.13
56630;BME280;42502;40.732;-74.254;2023-02-18T00:36:21;100097.53;;;19.89;38.08
56630;BME280;42502;40.732;-74.254;2023-02-18T00:38:22;100108.75;;;19.89;38.09
56630;BME280;42502;40.732;-74.254;2023-02-18T00:40:23;100111.44;;;19.85;38.17
56630;BME280;42502;40.732;-74.254;2023-02-18T00:42:24;100107.72;;;19.81;38.19
56630;BME280;42502;40.732;-74.254;2023-02-18T00:44:25;100119.03;;;19.85;38.19
56630;BME280;42502;40.732;-74.254;2023-02-18T00:46:27;100139.97;;;19.75;38.03
56630;BME280;42502;40.732;-74.254;2023-02-18T00:48:28;100141.47;;;19.85;38.04
56630;BME280;42502;40.732;-74.254;2023-02-18T00:50:29;100163.91;;;19.85;37.93
56630;BME280;42502;40.732;-74.254;2023-02-18T00:52:29;100165.06;;;19.84;37.81
56630;BME280;42502;40.732;-74.254;2023-02-18T00:54:33;100173.47;;;19.84;38.04
56630;BME280;42502;40.732;-74.254;2023-02-18T00:56:34;100173.47;;;19.84;37.87
56630;BME280;42502;40.732;-74.254;2023-02-18T00:58:37;100199.34;;;19.77;38.01
56630;BME280;42502;40.732;-74.254;2023-02-18T01:00:38;100204.22;;;19.80;37.85
56630;BME280;42502;40.732;-74.254;2023-02-18T01:02:39;100207.81;;;19.81;37.82
56630;BME280;42502;40.732;-74.254;2023-02-18T01:04:43;100190.78;;;19.74;37.91
56630;BME280;42502;40.732;-74.254;2023-02-18T01:06:44;100213.78;;;19.79;37.67
56630;BME280;42502;40.732;-74.254;2023-02-18T01:08:45;100206.78;;;19.73;37.66
56630;BME280;42502;40.732;-74.254;2023-02-18T01:10:48;100221.63;;;19.74;37.62
56630;BME280;42502;40.732;-74.254;2023-02-18T01:12:51;100226.50;;;19.77;37.69
56630;BME280;42502;40.732;-74.254;2023-02-18T01:14:53;100221.25;;;19.75;37.58
56630;BME280;42502;40.732;-74.254;2023-02-18T01:16:56;100198.84;;;19.75;37.39
56630;BME280;42502;40.732;-74.254;2023-02-18T01:18:57;100204.44;;;19.75;37.64
56630;BME280;42502;40.732;-74.254;2023-02-18T01:20:58;100201.91;;;19.70;37.20
56630;BME280;42502;40.732;-74.254;2023-02-18T01:22:59;100208.78;;;19.73;37.49
56630;BME280;42502;40.732;-74.254;2023-02-18T01:25:04;100204.34;;;19.71;37.49
56630;BME280;42502;40.732;-74.254;2023-02-18T01:27:05;100214.75;;;19.71;37.53
56630;BME280;42502;40.732;-74.254;2023-02-18T01:29:06;100215.84;;;19.66;37.31
56630;BME280;42502;40.732;-74.254;2023-02-18T01:31:11;100218.09;;;19.61;37.44
56630;BME280;42502;40.732;-74.254;2023-02-18T01:33:12;100240.34;;;19.69;37.25
56630;BME280;42502;40.732;-74.254;2023-02-18T01:35:16;100233.91;;;19.69;37.37
56630;BME280;42502;40.732;-74.254;2023-02-18T01:37:17;100226.69;;;19.68;37.40
56630;BME280;42502;40.732;-74.254;2023-02-18T01:39:18;100247.47;;;19.67;37.40
56630;BME280;42502;40.732;-74.254;2023-02-18T01:41:19;100248.09;;;19.60;37.44
56630;BME280;42502;40.732;-74.254;2023-02-18T01:43:21;100253.06;;;19.67;37.17
56630;BME280;42502;40.732;-74.254;2023-02-18T01:47:37;100249.00;;;19.64;37.32
56630;BME280;42502;40.732;-74.254;2023-02-18T01:49:39;100261.03;;;19.65;37.15
56630;BME280;42502;40.732;-74.254;2023-02-18T01:51:50;100261.28;;;19.60;37.26
56630;BME280;42502;40.732;-74.254;2023-02-18T01:56:05;100306.09;;;19.60;37.27
56630;BME280;42502;40.732;-74.254;2023-02-18T01:58:08;100312.19;;;19.62;37.00
56630;BME280;42502;40.732;-74.254;2023-02-18T02:00:14;100333.78;;;19.61;37.29
56630;BME280;42502;40.732;-74.254;2023-02-18T02:02:18;100359.00;;;19.61;37.06
56630;BME280;42502;40.732;-74.254;2023-02-18T02:04:20;100350.94;;;19.60;37.17
56630;BME280;42502;40.732;-74.254;2023-02-18T02:06:22;100359.97;;;19.53;36.72
56630;BME280;42502;40.732;-74.254;2023-02-18T02:08:23;100372.91;;;19.58;37.11
56630;BME280;42502;40.732;-74.254;2023-02-18T02:15:16;100399.53;;;19.51;37.19
56630;BME280;42502;40.732;-74.254;2023-02-18T02:17:41;100414.84;;;19.54;36.96
56630;BME280;42502;40.732;-74.254;2023-02-18T02:53:32;100509.16;;;19.38;36.75
56630;BME280;42502;40.732;-74.254;2023-02-18T02:55:34;100509.63;;;19.40;36.84
56630;BME280;42502;40.732;-74.254;2023-02-18T02:57:47;100505.88;;;19.35;37.00
56630;BME280;42502;40.732;-74.254;2023-02-18T02:59:58;100517.56;;;19.38;36.82
56630;BME280;42502;40.732;-74.254;2023-02-18T03:08:40;100553.50;;;19.35;36.59
56630;BME280;42502;40.732;-74.254;2023-02-18T03:11:05;100540.69;;;19.34;36.87
56630;BME280;42502;40.732;-74.254;2023-02-18T03:15:29;100552.25;;;19.33;36.48
56630;BME280;42502;40.732;-74.254;2023-02-18T03:18:00;100564.59;;;19.32;36.80
56630;BME280;42502;40.732;-74.254;2023-02-18T03:20:46;100576.16;;;19.30;36.68
56630;BME280;42502;40.732;-74.254;2023-02-18T03:22:46;100589.81;;;19.32;36.63
56630;BME280;42502;40.732;-74.254;2023-02-18T03:24:51;100575.81;;;19.32;36.26
56630;BME280;42502;40.732;-74.254;2023-02-18T03:26:58;100588.75;;;19.24;36.72
56630;BME280;42502;40.732;-74.254;2023-02-18T03:29:03;100602.50;;;19.29;36.40
56630;BME280;42502;40.732;-74.254;2023-02-18T03:31:11;100598.91;;;19.29;36.47
56630;BME280;42502;40.732;-74.254;2023-02-18T03:33:16;100599.72;;;19.29;36.67
56630;BME280;42502;40.732;-74.254;2023-02-18T03:35:18;100618.50;;;19.29;36.46
56630;BME280;42502;40.732;-74.254;2023-02-18T03:37:20;100608.13;;;19.29;36.42
56630;BME280;42502;40.732;-74.254;2023-02-18T03:39:22;100611.59;;;19.26;36.39
56630;BME280;42502;40.732;-74.254;2023-02-18T03:41:26;100623.16;;;19.25;36.52
56630;BME280;42502;40.732;-74.254;2023-02-18T03:43:28;100620.00;;;19.26;36.54
56630;BME280;42502;40.732;-74.254;2023-02-18T03:45:29;100603.44;;;19.21;36.63
56630;BME280;42502;40.732;-74.254;2023-02-18T03:47:29;100618.41;;;19.25;36.70
56630;BME280;42502;40.732;-74.254;2023-02-18T03:49:30;100624.34;;;19.24;36.46
56630;BME280;42502;40.732;-74.254;2023-02-18T03:51:34;100621.88;;;19.22;36.37
56630;BME280;42502;40.732;-74.254;2023-02-18T03:53:37;100652.00;;;19.25;36.26
56630;BME280;42502;40.732;-74.254;2023-02-18T03:55:39;100648.03;;;19.26;36.47
56630;BME280;42502;40.732;-74.254;2023-02-18T03:57:39;100643.47;;;19.22;36.54
56630;BME280;42502;40.732;-74.254;2023-02-18T03:59:40;100652.81;;;19.26;36.52
56630;BME280;42502;40.732;-74.254;2023-02-18T04:01:41;100641.63;;;19.26;36.56
56630;BME280;42502;40.732;-74.254;2023-02-18T04:03:42;100654.81;;;19.25;36.39
56630;BME280;42502;40.732;-74.254;2023-02-18T04:05:43;100668.31;;;19.23;36.36
56630;BME280;42502;40.732;-74.254;2023-02-18T04:07:44;100671.13;;;19.23;36.42
56630;BME280;42502;40.732;-74.254;2023-02-18T04:09:48;100683.00;;;19.20;36.39
56630;BME280;42502;40.732;-74.254;2023-02-18T04:11:49;100652.06;;;19.04;36.57
56630;BME280;42502;40.732;-74.254;2023-02-18T04:13:49;100703.91;;;19.23;36.37
56630;BME280;42502;40.732;-74.254;2023-02-18T04:15:51;100687.91;;;19.23;36.67
56630;BME280;42502;40.732;-74.254;2023-02-18T04:17:52;100701.13;;;19.23;36.56
56630;BME280;42502;40.732;-74.254;2023-02-18T04:19:52;100708.72;;;19.22;36.45
56630;BME280;42502;40.732;-74.254;2023-02-18T04:21:53;100711.34;;;19.18;36.45
56630;BME280;42502;40.732;-74.254;2023-02-18T04:23:54;100720.44;;;19.15;36.16
56630;BME280;42502;40.732;-74.254;2023-02-18T04:25:55;100723.03;;;19.21;36.38
56630;BME280;42502;40.732;-74.254;2023-02-18T04:27:56;100729.47;;;19.21;36.09
56630;BME280;42502;40.732;-74.254;2023-02-18T04:29:57;100736.44;;;19.15;36.34
56630;BME280;42502;40.732;-74.254;2023-02-18T04:31:58;100733.97;;;19.13;36.27
56630;BME280;42502;40.732;-74.254;2023-02-18T04:33:58;100745.78;;;19.19;36.33
56630;BME280;42502;40.732;-74.254;2023-02-18T04:35:59;100732.47;;;19.16;36.26
56630;BME280;42502;40.732;-74.254;2023-02-18T04:38:00;100750.91;;;19.17;36.08
56630;BME280;42502;40.732;-74.254;2023-02-18T04:40:01;100748.13;;;19.17;36.03
56630;BME280;42502;40.732;-74.254;2023-02-18T04:42:02;100763.94;;;19.13;35.96
56630;BME280;42502;40.732;-74.254;2023-02-18T04:44:08;100777.94;;;19.13;36.17
56630;BME280;42502;40.732;-74.254;2023-02-18T04:46:09;100769.09;;;19.11;35.95
56630;BME280;42502;40.732;-74.254;2023-02-18T04:48:09;100760.91;;;19.06;35.79
56630;BME280;42502;40.732;-74.254;2023-02-18T04:50:10;100779.47;;;19.10;35.87
56630;BME280;42502;40.732;-74.254;2023-02-18T04:52:11;100774.69;;;19.11;35.75
56630;BME280;42502;40.732;-74.254;2023-02-18T04:54:12;100779.47;;;19.10;35.75
56630;BME280;42502;40.732;-74.254;2023-02-18T04:56:16;100771.41;;;19.09;35.84
56630;BME280;42502;40.732;-74.254;2023-02-18T04:58:17;100774.56;;;19.07;35.89
56630;BME280;42502;40.732;-74.254;2023-02-18T05:00:19;100787.72;;;19.07;35.75
56630;BME280;42502;40.732;-74.254;2023-02-18T05:02:22;100774.63;;;18.98;35.94
56630;BME280;42502;40.732;-74.254;2023-02-18T05:04:23;100783.00;;;18.98;35.83
56630;BME280;42502;40.732;-74.254;2023-02-18T05:06:24;100792.56;;;18.97;35.44
56630;BME280;42502;40.732;-74.254;2023-02-18T05:08:25;100796.53;;;18.96;35.83
56630;BME280;42502;40.732;-74.254;2023-02-18T05:10:26;100802.97;;;18.97;35.44
56630;BME280;42502;40.732;-74.254;2023-02-18T05:12:27;100807.06;;;18.99;35.43
56630;BME280;42502;40.732;-74.254;2023-02-18T05:14:28;100828.63;;;18.99;35.46
56630;BME280;42502;40.732;-74.254;2023-02-18T05:16:29;100809.91;;;18.91;35.35
56630;BME280;42502;40.732;-74.254;2023-02-18T05:18:30;100830.13;;;18.96;35.60
56630;BME280;42502;40.732;-74.254;2023-02-18T05:20:31;100821.25;;;18.94;35.42
56630;BME280;42502;40.732;-74.254;2023-02-18T05:22:32;100820.28;;;18.90;35.56
56630;BME280;42502;40.732;-74.254;2023-02-18T05:24:33;100829.97;;;18.93;35.34
56630;BME280;42502;40.732;-74.254;2023-02-18T05:26:34;100816.53;;;18.86;35.42
56630;BME280;42502;40.732;-74.254;2023-02-18T05:28:35;100829.34;;;18.87;35.14
56630;BME280;42502;40.732;-74.254;2023-02-18T05:30:35;100821.28;;;18.86;35.21
56630;BME280;42502;40.732;-74.254;2023-02-18T05:32:36;100829.00;;;18.89;35.29
56630;BME280;42502;40.732;-74.254;2023-02-18T05:34:37;100823.28;;;18.85;35.27
56630;BME280;42502;40.732;-74.254;2023-02-18T05:36:41;100820.16;;;18.78;35.05
56630;BME280;42502;40.732;-74.254;2023-02-18T05:38:42;100835.34;;;18.77;35.08
56630;BME280;42502;40.732;-74.254;2023-02-18T05:40:43;100846.31;;;18.82;35.07
56630;BME280;42502;40.732;-74.254;2023-02-18T05:42:44;100851.91;;;18.82;35.16
56630;BME280;42502;40.732;-74.254;2023-02-18T05:44:44;100841.59;;;18.74;35.10
56630;BME280;42502;40.732;-74.254;2023-02-18T05:46:45;100841.25;;;18.75;35.11
56630;BME280;42502;40.732;-74.254;2023-02-18T05:48:52;100873.53;;;18.73;35.18
56630;BME280;42502;40.732;-74.254;2023-02-18T05:50:53;100841.09;;;18.72;35.05
56630;BME280;42502;40.732;-74.254;2023-02-18T05:52:54;100859.69;;;18.76;34.84
56630;BME280;42502;40.732;-74.254;2023-02-18T05:54:55;100858.41;;;18.74;35.10
56630;BME280;42502;40.732;-74.254;2023-02-18T05:56:56;100861.19;;;18.74;34.79
56630;BME280;42502;40.732;-74.254;2023-02-18T05:59:00;100867.94;;;18.73;34.73
56630;BME280;42502;40.732;-74.254;2023-02-18T06:01:01;100867.47;;;18.71;34.85
56630;BME280;42502;40.732;-74.254;2023-02-18T06:03:02;100888.88;;;18.67;34.83
56630;BME280;42502;40.732;-74.254;2023-02-18T06:05:04;100869.63;;;18.65;35.01
56630;BME280;42502;40.732;-74.254;2023-02-18T06:07:05;100878.84;;;18.65;34.89
56630;BME280;42502;40.732;-74.254;2023-02-18T06:09:07;100872.75;;;18.63;34.72
56630;BME280;42502;40.732;-74.254;2023-02-18T06:11:08;100883.31;;;18.58;34.74
56630;BME280;42502;40.732;-74.254;2023-02-18T06:13:12;100889.72;;;18.58;34.59
56630;BME280;42502;40.732;-74.254;2023-02-18T06:15:13;100889.88;;;18.62;34.88
56630;BME280;42502;40.732;-74.254;2023-02-18T06:17:14;100897.31;;;18.58;34.75
56630;BME280;42502;40.732;-74.254;2023-02-18T06:19:15;100904.53;;;18.59;34.75
56630;BME280;42502;40.732;-74.254;2023-02-18T06:21:16;100920.50;;;18.58;34.75
56630;BME280;42502;40.732;-74.254;2023-02-18T06:23:17;100917.22;;;18.56;34.55
56630;BME280;42502;40.732;-74.254;2023-02-18T06:25:18;100915.56;;;18.55;34.41
56630;BME280;42502;40.732;-74.254;2023-02-18T06:27:19;100907.84;;;18.52;34.51
56630;BME280;42502;40.732;-74.254;2023-02-18T06:29:20;100908.38;;;18.45;34.55
56630;BME280;42502;40.732;-74.254;2023-02-18T06:31:21;100924.97;;;18.51;34.54
56630;BME280;42502;40.732;-74.254;2023-02-18T06:33:22;100934.53;;;18.50;34.40
56630;BME280;42502;40.732;-74.254;2023-02-18T06:35:23;100928.75;;;18.46;34.54
56630;BME280;42502;40.732;-74.254;2023-02-18T06:37:24;100931.41;;;18.42;34.43
56630;BME280;42502;40.732;-74.254;2023-02-18T06:39:25;100943.94;;;18.45;34.51
56630;BME280;42502;40.732;-74.254;2023-02-18T06:41:26;100928.16;;;18.40;34.30
56630;BME280;42502;40.732;-74.254;2023-02-18T06:43:33;100919.09;;;18.35;34.40
56630;BME280;42502;40.732;-74.254;2023-02-18T06:45:34;100947.41;;;18.42;34.19
56630;BME280;42502;40.732;-74.254;2023-02-18T06:47:37;100954.00;;;18.37;34.31
56630;BME280;42502;40.732;-74.254;2023-02-18T06:49:38;100953.16;;;18.37;34.31
56630;BME280;42502;40.732;-74.254;2023-02-18T06:51:39;100959.41;;;18.34;34.21
56630;BME280;42502;40.732;-74.254;2023-02-18T06:53:43;100967.47;;;18.35;34.22
56630;BME280;42502;40.732;-74.254;2023-02-18T06:55:44;100955.13;;;18.27;33.93
56630;BME280;42502;40.732;-74.254;2023-02-18T06:57:48;100977.84;;;18.35;34.26
56630;BME280;42502;40.732;-74.254;2023-02-18T06:59:52;100988.53;;;18.33;33.90
56630;BME280;42502;40.732;-74.254;2023-02-18T07:01:53;100986.72;;;18.28;34.00
56630;BME280;42502;40.732;-74.254;2023-02-18T07:03:53;100994.28;;;18.27;33.93
56630;BME280;42502;40.732;-74.254;2023-02-18T07:05:54;100991.00;;;18.25;33.87
56630;BME280;42502;40.732;-74.254;2023-02-18T07:07:55;100998.22;;;18.26;34.07
56630;BME280;42502;40.732;-74.254;2023-02-18T07:09:56;101003.00;;;18.26;34.14
56630;BME280;42502;40.732;-74.254;2023-02-18T07:11:57;101000.53;;;18.24;33.78
56630;BME280;42502;40.732;-74.254;2023-02-18T07:13:58;101018.47;;;18.23;33.79
56630;BME280;42502;40.732;-74.254;2023-02-18T07:15:59;101018.81;;;18.22;33.99
56630;BME280;42502;40.732;-74.254;2023-02-18T07:18:00;101024.72;;;18.20;33.90
56630;BME280;42502;40.732;-74.254;2023-02-18T07:20:01;101032.97;;;18.17;33.99
56630;BME280;42502;40.732;-74.254;2023-02-18T07:22:02;101038.22;;;18.18;33.86
56630;BME280;42502;40.732;-74.254;2023-02-18T07:24:03;101035.44;;;18.18;33.91
56630;BME280;42502;40.732;-74.254;2023-02-18T07:26:06;101036.91;;;18.16;33.94
56630;BME280;42502;40.732;-74.254;2023-02-18T07:28:07;101053.66;;;18.16;33.61
56630;BME280;42502;40.732;-74.254;2023-02-18T07:30:09;101036.41;;;18.14;33.48
56630;BME280;42502;40.732;-74.254;2023-02-18T07:32:14;101031.00;;;18.08;33.82
56630;BME280;42502;40.732;-74.254;2023-02-18T07:34:15;101044.31;;;18.11;33.91
56630;BME280;42502;40.732;-74.254;2023-02-18T07:36:16;101038.22;;;18.09;33.79
56630;BME280;42502;40.732;-74.254;2023-02-18T07:38:17;101059.78;;;18.09;33.50
56630;BME280;42502;40.732;-74.254;2023-02-18T07:40:20;101060.91;;;18.08;33.53
56630;BME280;42502;40.732;-74.254;2023-02-18T07:42:21;101069.13;;;18.04;33.61
56630;BME280;42502;40.732;-74.254;2023-02-18T07:44:22;101080.00;;;18.06;33.47
56630;BME280;42502;40.732;-74.254;2023-02-18T07:46:23;101073.91;;;18.04;33.93
56630;BME280;42502;40.732;-74.254;2023-02-18T07:48:24;101077.03;;;18.02;33.73
56630;BME280;42502;40.732;-74.254;2023-02-18T07:50:24;101084.59;;;18.02;33.83
56630;BME280;42502;40.732;-74.254;2023-02-18T07:52:25;101086.56;;;18.01;33.34
56630;BME280;42502;40.732;-74.254;2023-02-18T07:54:29;101094.78;;;17.98;33.54
56630;BME280;42502;40.732;-74.254;2023-02-18T07:56:30;101092.13;;;17.92;33.41
56630;BME280;42502;40.732;-74.254;2023-02-18T07:58:33;101096.59;;;17.93;33.67
56630;BME280;42502;40.732;-74.254;2023-02-18T08:00:36;101114.66;;;17.96;33.63
56630;BME280;42502;40.732;-74.254;2023-02-18T08:02:37;101111.06;;;17.96;33.66
56630;BME280;42502;40.732;-74.254;2023-02-18T08:04:37;101116.16;;;17.93;33.56
56630;BME280;42502;40.732;-74.254;2023-02-18T08:06:41;101106.94;;;17.93;33.28
56630;BME280;42502;40.732;-74.254;2023-02-18T08:08:42;101108.53;;;17.85;33.44
56630;BME280;42502;40.732;-74.254;2023-02-18T08:10:43;101120.03;;;17.84;33.64
56630;BME280;42502;40.732;-74.254;2023-02-18T08:12:44;101117.56;;;17.82;33.27
56630;BME280;42502;40.732;-74.254;2023-02-18T08:14:44;101135.00;;;17.88;33.40
56630;BME280;42502;40.732;-74.254;2023-02-18T08:16:45;101141.56;;;17.83;33.60
56630;BME280;42502;40.732;-74.254;2023-02-18T08:18:49;101145.69;;;17.86;33.48
56630;BME280;42502;40.732;-74.254;2023-02-18T08:20:51;101147.97;;;17.84;33.34
56630;BME280;42502;40.732;-74.254;2023-02-18T08:22:52;101141.56;;;17.83;33.50
56630;BME280;42502;40.732;-74.254;2023-02-18T08:24:55;101142.22;;;17.80;33.28
56630;BME280;42502;40.732;-74.254;2023-02-18T08:26:56;101140.06;;;17.77;33.64
56630;BME280;42502;40.732;-74.254;2023-02-18T08:28:57;101139.06;;;17.73;33.17
56630;BME280;42502;40.732;-74.254;2023-02-18T08:30:58;101153.72;;;17.79;33.43
56630;BME280;42502;40.732;-74.254;2023-02-18T08:32:59;101158.81;;;17.76;33.52
56630;BME280;42502;40.732;-74.254;2023-02-18T08:35:03;101157.00;;;17.72;33.62
56630;BME280;42502;40.732;-74.254;2023-02-18T08:37:04;101167.84;;;17.73;33.40
56630;BME280;42502;40.732;-74.254;2023-02-18T08:39:05;101159.91;;;17.67;33.41
56630;BME280;42502;40.732;-74.254;2023-02-18T08:41:07;101174.25;;;17.74;33.07
56630;BME280;42502;40.732;-74.254;2023-02-18T08:43:11;101184.94;;;17.72;33.15
56630;BME280;42502;40.732;-74.254;2023-02-18T08:45:12;101182.16;;;17.72;33.24
56630;BME280;42502;40.732;-74.254;2023-02-18T08:47:13;101185.91;;;17.67;33.06
56630;BME280;42502;40.732;-74.254;2023-02-18T08:49:16;101201.19;;;17.70;33.12
56630;BME280;42502;40.732;-74.254;2023-02-18T08:51:21;101204.31;;;17.68;33.09
56630;BME280;42502;40.732;-74.254;2023-02-18T08:53:25;101196.72;;;17.60;33.20
56630;BME280;42502;40.732;-74.254;2023-02-18T08:55:26;101213.00;;;17.67;33.34
56630;BME280;42502;40.732;-74.254;2023-02-18T08:57:27;101219.72;;;17.66;33.40
56630;BME280;42502;40.732;-74.254;2023-02-18T08:59:28;101222.69;;;17.61;33.17
56630;BME280;42502;40.732;-74.254;2023-02-18T09:01:29;101222.34;;;17.62;33.23
56630;BME280;42502;40.732;-74.254;2023-02-18T09:03:30;101237.13;;;17.63;33.36
56630;BME280;42502;40.732;-74.254;2023-02-18T09:05:31;101247.50;;;17.62;33.19
56630;BME280;42502;40.732;-74.254;2023-02-18T09:07:32;101249.81;;;17.60;33.28
56630;BME280;42502;40.732;-74.254;2023-02-18T09:09:33;101256.53;;;17.59;33.15
56630;BME280;42502;40.732;-74.254;2023-02-18T09:11:34;101258.50;;;17.58;33.23
56630;BME280;42502;40.732;-74.254;2023-02-18T09:13:35;101260.78;;;17.56;33.32
56630;BME280;42502;40.732;-74.254;2023-02-18T09:15:35;101258.63;;;17.53;33.34
56630;BME280;42502;40.732;-74.254;2023-02-18T09:17:36;101269.16;;;17.56;32.93
56630;BME280;42502;40.732;-74.254;2023-02-18T09:19:40;101265.88;;;17.54;33.30
56630;BME280;42502;40.732;-74.254;2023-02-18T09:21:41;101267.63;;;17.50;33.24
56630;BME280;42502;40.732;-74.254;2023-02-18T09:23:42;101277.38;;;17.53;33.17
56630;BME280;42502;40.732;-74.254;2023-02-18T09:25:43;101277.69;;;17.51;32.97
56630;BME280;42502;40.732;-74.254;2023-02-18T09:27:44;101288.03;;;17.51;33.18
56630;BME280;42502;40.732;-74.254;2023-02-18T09:29:45;101288.34;;;17.49;33.34
56630;BME280;42502;40.732;-74.254;2023-02-18T09:31:48;101272.66;;;17.39;33.06
56630;BME280;42502;40.732;-74.254;2023-02-18T09:33:52;101290.94;;;17.46;33.19
56630;BME280;42502;40.732;-74.254;2023-02-18T09:35:56;101290.44;;;17.44;32.78
56630;BME280;42502;40.732;-74.254;2023-02-18T09:37:57;101293.88;;;17.40;32.92
56630;BME280;42502;40.732;-74.254;2023-02-18T09:39:58;101317.25;;;17.45;33.04
56630;BME280;42502;40.732;-74.254;2023-02-18T09:42:06;101308.66;;;17.41;33.02
56630;BME280;42502;40.732;-74.254;2023-02-18T09:46:23;101332.97;;;17.40;33.14
56630;BME280;42502;40.732;-74.254;2023-02-18T09:48:30;101338.06;;;17.38;33.02
56630;BME280;42502;40.732;-74.254;2023-02-18T09:50:32;101337.22;;;17.38;33.26
56630;BME280;42502;40.732;-74.254;2023-02-18T09:52:37;101336.41;;;17.37;32.75
56630;BME280;42502;40.732;-74.254;2023-02-18T09:54:38;101338.97;;;17.34;32.95
56630;BME280;42502;40.732;-74.254;2023-02-18T09:56:40;101349.84;;;17.35;33.00
56630;BME280;42502;40.732;-74.254;2023-02-18T09:58:43;101350.16;;;17.34;33.04
56630;BME280;42502;40.732;-74.254;2023-02-18T10:00:55;101344.19;;;17.27;33.07
56630;BME280;42502;40.732;-74.254;2023-02-18T10:03:12;101359.69;;;17.33;32.95
56630;BME280;42502;40.732;-74.254;2023-02-18T10:05:14;101365.59;;;17.31;33.00
56630;BME280;42502;40.732;-74.254;2023-02-18T10:07:24;101365.06;;;17.29;33.35
56630;BME280;42502;40.732;-74.254;2023-02-18T10:09:34;101359.94;;;17.22;33.12
56630;BME280;42502;40.732;-74.254;2023-02-18T10:11:41;101377.41;;;17.28;33.08
56630;BME280;42502;40.732;-74.254;2023-02-18T10:13:43;101365.00;;;17.20;33.01
56630;BME280;42502;40.732;-74.254;2023-02-18T10:15:47;101385.56;;;17.25;33.10
56630;BME280;42502;40.732;-74.254;2023-02-18T10:17:50;101390.31;;;17.24;32.80
56630;BME280;42502;40.732;-74.254;2023-02-18T10:19:55;101398.53;;;17.20;32.90
56630;BME280;42502;40.732;-74.254;2023-02-18T10:22:00;101334.25;;;16.70;32.91
56630;BME280;42502;40.732;-74.254;2023-02-18T10:24:29;101394.69;;;17.16;32.98
56630;BME280;42502;40.732;-74.254;2023-02-18T10:26:29;101394.69;;;17.16;32.70
56630;BME280;42502;40.732;-74.254;2023-02-18T10:28:40;101411.13;;;17.18;32.69
56630;BME280;42502;40.732;-74.254;2023-02-18T10:30:42;101410.31;;;17.17;33.04
56630;BME280;42502;40.732;-74.254;2023-02-18T10:32:51;101424.28;;;17.17;33.04
56630;BME280;42502;40.732;-74.254;2023-02-18T10:35:20;101423.56;;;17.12;32.86
56630;BME280;42502;40.732;-74.254;2023-02-18T10:37:45;101430.50;;;17.14;32.99
56630;BME280;42502;40.732;-74.254;2023-02-18T10:40:12;101435.53;;;17.12;33.17
56630;BME280;42502;40.732;-74.254;2023-02-18T10:52:15;101463.06;;;17.05;32.90
56630;BME280;42502;40.732;-74.254;2023-02-18T10:54:16;101461.41;;;17.04;32.66
56630;BME280;42502;40.732;-74.254;2023-02-18T10:56:41;101465.44;;;16.98;33.24
56630;BME280;42502;40.732;-74.254;2023-02-18T10:58:46;101487.16;;;17.01;33.04
56630;BME280;42502;40.732;-74.254;2023-02-18T11:00:52;101490.56;;;16.98;32.99
56630;BME280;42502;40.732;-74.254;2023-02-18T11:03:15;101504.22;;;16.99;33.13
56630;BME280;42502;40.732;-74.254;2023-02-18T11:05:23;101497.78;;;16.99;32.76
56630;BME280;42502;40.732;-74.254;2023-02-18T11:07:30;101502.53;;;16.98;32.78
56630;BME280;42502;40.732;-74.254;2023-02-18T11:11:47;101493.53;;;16.87;32.63
56630;BME280;42502;40.732;-74.254;2023-02-18T11:13:53;101499.13;;;16.87;33.02
56630;BME280;42502;40.732;-74.254;2023-02-18T11:20:34;101524.44;;;16.91;32.69
56630;BME280;42502;40.732;-74.254;2023-02-18T11:22:35;101517.84;;;16.87;32.90
56630;BME280;42502;40.732;-74.254;2023-02-18T11:24:39;101513.47;;;16.81;32.75
56630;BME280;42502;40.732;-74.254;2023-02-18T11:26:40;101528.72;;;16.89;32.50
56630;BME280;42502;40.732;-74.254;2023-02-18T11:28:50;101533.44;;;16.88;32.66
56630;BME280;42502;40.732;-74.254;2023-02-18T11:30:57;101528.25;;;16.81;32.86
56630;BME280;42502;40.732;-74.254;2023-02-18T11:33:14;101533.31;;;16.79;32.80
56630;BME280;42502;40.732;-74.254;2023-02-18T11:35:24;101537.66;;;16.85;32.79
56630;BME280;42502;40.732;-74.254;2023-02-18T11:37:30;101548.41;;;16.78;32.58
56630;BME280;42502;40.732;-74.254;2023-02-18T11:39:32;101544.69;;;16.83;32.65